createdAt,value
2019-05-06T00:01:34.187Z,2.37
2019-05-06T00:04:04.856Z,2.25
2019-05-06T00:06:34.552Z,2.27
2019-05-06T00:09:04.823Z,2.58
2019-05-06T00:11:34.595Z,2.52
2019-05-06T00:14:04.195Z,2.58
2019-05-06T00:16:34.730Z,2.50
2019-05-06T00:19:04.776Z,2.50
2019-05-06T00:21:35.495Z,2.37
2019-05-06T00:24:05.069Z,2.65
2019-05-06T00:26:54.201Z,2.37
2019-05-06T00:29:24.189Z,2.55
2019-05-06T00:31:53.698Z,2.58
2019-05-06T00:34:24.473Z,2.50
2019-05-06T00:36:54.497Z,2.85
2019-05-06T00:39:25.450Z,2.35
2019-05-06T00:41:56.233Z,2.47
2019-05-06T00:44:25.483Z,2.98
2019-05-06T00:46:54.734Z,2.40
2019-05-06T00:49:23.983Z,2.77
2019-05-06T00:51:55.050Z,3.17
2019-05-06T00:54:27.996Z,2.92
2019-05-06T00:56:57.153Z,2.75
2019-05-06T00:59:26.415Z,2.62
2019-05-06T01:01:55.772Z,3.33
2019-05-06T01:04:25.005Z,2.55
2019-05-06T01:06:54.485Z,3.40
2019-05-06T01:09:24.294Z,2.65
2019-05-06T01:11:55.839Z,2.77
2019-05-06T01:14:26.575Z,3.22
2019-05-06T01:16:55.572Z,3.17
2019-05-06T01:19:24.671Z,2.67
2019-05-06T01:21:54.099Z,3.15
2019-05-06T01:24:23.880Z,3.25
2019-05-06T01:26:53.629Z,3.30
2019-05-06T01:29:24.085Z,2.62
2019-05-06T01:31:54.448Z,2.72
2019-05-06T01:34:24.522Z,3.30
2019-05-06T01:36:54.526Z,3.77
2019-05-06T01:39:31.323Z,3.33
2019-05-06T01:42:07.706Z,3.25
2019-05-06T01:44:37.084Z,3.55
2019-05-06T01:47:06.359Z,4.20
2019-05-06T01:49:35.456Z,3.20
2019-05-06T01:52:04.654Z,3.45
2019-05-06T01:54:34.476Z,4.00
2019-05-06T01:57:04.406Z,3.05
2019-05-06T01:59:34.270Z,3.72
2019-05-06T02:02:04.429Z,3.30
2019-05-06T02:04:34.455Z,3.55
2019-05-06T02:07:03.957Z,3.67
2019-05-06T02:09:34.264Z,3.27
2019-05-06T02:12:04.623Z,3.67
2019-05-06T02:14:34.298Z,3.60
2019-05-06T02:17:03.757Z,3.75
2019-05-06T02:19:34.723Z,3.58
2019-05-06T02:22:05.367Z,4.15
2019-05-06T02:24:43.866Z,3.87
2019-05-06T02:27:13.933Z,3.85
2019-05-06T02:29:47.438Z,4.22
2019-05-06T02:32:26.317Z,4.10
2019-05-06T02:35:08.588Z,3.70
2019-05-06T02:37:47.198Z,4.25
2019-05-06T02:40:18.885Z,4.65
2019-05-06T02:42:48.158Z,4.75
2019-05-06T02:45:17.349Z,4.65
2019-05-06T02:47:57.148Z,4.35
2019-05-06T02:50:33.796Z,4.37
2019-05-06T02:53:02.722Z,4.58
2019-05-06T02:55:33.352Z,4.97
2019-05-06T02:58:03.008Z,4.30
2019-05-06T03:00:33.024Z,4.60
2019-05-06T03:03:02.904Z,4.28
2019-05-06T03:05:33.333Z,4.62
2019-05-06T03:08:03.256Z,4.50
2019-05-06T03:10:33.055Z,4.58
2019-05-06T03:13:03.114Z,5.87
2019-05-06T03:15:34.290Z,5.45
2019-05-06T03:18:03.296Z,5.05
2019-05-06T03:20:47.300Z,6.10
2019-05-06T03:23:18.017Z,6.00
2019-05-06T03:25:47.319Z,5.58
2019-05-06T03:28:16.451Z,5.58
2019-05-06T03:30:46.343Z,6.28
2019-05-06T03:33:37.692Z,6.17
2019-05-06T03:36:00.593Z,7.20
2019-05-06T03:38:17.236Z,6.92
2019-05-06T03:40:46.573Z,6.20
2019-05-06T03:43:16.451Z,7.37
2019-05-06T03:45:53.644Z,6.58
2019-05-06T03:48:24.554Z,6.40
2019-05-06T03:50:56.095Z,7.40
2019-05-06T03:53:24.485Z,6.53
2019-05-06T03:55:54.150Z,7.37
2019-05-06T03:58:26.713Z,7.00
2019-05-06T04:00:54.101Z,6.67
2019-05-06T04:03:41.963Z,7.37
2019-05-06T04:05:55.898Z,7.08
2019-05-06T04:08:25.448Z,8.00
2019-05-06T04:10:54.807Z,7.05
2019-05-06T04:13:24.369Z,7.12
2019-05-06T04:15:57.833Z,7.70
2019-05-06T04:18:34.595Z,8.13
2019-05-06T04:21:08.730Z,7.65
2019-05-06T04:23:38.369Z,7.72
2019-05-06T04:26:09.067Z,7.05
2019-05-06T04:28:39.325Z,7.53
2019-05-06T04:31:08.477Z,8.53
2019-05-06T04:33:37.535Z,7.85
2019-05-06T04:36:07.022Z,6.97
2019-05-06T04:38:36.317Z,7.47
2019-05-06T04:41:05.539Z,7.65
2019-05-06T04:43:35.050Z,7.25
2019-05-06T04:46:04.288Z,6.78
2019-05-06T04:48:33.535Z,6.83
2019-05-06T04:51:03.596Z,7.28
2019-05-06T04:53:33.893Z,6.78
2019-05-06T04:56:04.019Z,7.05
2019-05-06T04:58:33.897Z,7.03
2019-05-06T05:01:04.105Z,6.47
2019-05-06T05:03:33.804Z,7.65
2019-05-06T05:06:05.709Z,7.22
2019-05-06T05:08:37.668Z,6.47
2019-05-06T05:11:18.518Z,6.60
2019-05-06T05:13:53.169Z,7.92
2019-05-06T05:16:30.120Z,7.05
2019-05-06T05:19:02.652Z,7.10
2019-05-06T05:21:32.233Z,7.55
2019-05-06T05:24:02.139Z,7.53
2019-05-06T05:26:32.285Z,8.60
2019-05-06T05:29:02.848Z,8.63
2019-05-06T05:31:33.282Z,6.95
2019-05-06T05:34:02.861Z,7.22
2019-05-06T05:36:32.874Z,7.05
2019-05-06T05:39:03.384Z,7.42
2019-05-06T05:41:33.190Z,6.87
2019-05-06T05:44:04.205Z,7.65
2019-05-06T05:46:33.709Z,7.20
2019-05-06T05:49:04.515Z,7.28
2019-05-06T05:51:33.754Z,8.53
2019-05-06T05:54:03.029Z,8.60
2019-05-06T05:56:32.990Z,7.37
2019-05-06T05:59:03.245Z,7.40
2019-05-06T06:01:32.915Z,7.75
2019-05-06T06:04:03.130Z,7.28
2019-05-06T06:06:33.222Z,7.70
2019-05-06T06:09:03.227Z,8.10
2019-05-06T06:11:36.904Z,8.18
2019-05-06T06:14:07.767Z,7.17
2019-05-06T06:16:38.559Z,6.60
2019-05-06T06:19:24.852Z,6.78
2019-05-06T06:21:55.753Z,12.10
2019-05-06T06:24:29.236Z,8.50
2019-05-06T06:26:58.623Z,7.75
2019-05-06T06:29:28.276Z,7.80
2019-05-06T06:32:08.229Z,7.08
2019-05-06T06:34:52.141Z,7.28
2019-05-06T06:37:29.302Z,8.25
2019-05-06T06:40:02.373Z,8.53
2019-05-06T06:42:33.367Z,7.20
2019-05-06T06:45:03.543Z,8.15
2019-05-06T06:47:32.894Z,7.40
2019-05-06T06:50:02.848Z,7.67
2019-05-06T06:52:32.682Z,8.15
2019-05-06T06:55:02.650Z,7.80
2019-05-06T06:57:36.330Z,7.58
2019-05-06T07:00:07.865Z,7.80
2019-05-06T07:02:45.803Z,8.28
2019-05-06T07:05:28.467Z,9.48
2019-05-06T07:07:56.536Z,8.30
2019-05-06T07:10:43.783Z,8.63
2019-05-06T07:13:13.919Z,8.05
2019-05-06T07:15:43.039Z,7.45
2019-05-06T07:18:13.505Z,8.20
2019-05-06T07:21:04.156Z,7.28
2019-05-06T07:23:36.666Z,7.15
2019-05-06T07:28:36.076Z,8.30
2019-05-06T07:31:18.671Z,7.92
2019-05-06T07:33:37.720Z,9.50
2019-05-06T07:36:06.897Z,8.85
2019-05-06T07:38:36.189Z,8.55
2019-05-06T07:41:06.873Z,8.68
2019-05-06T07:43:43.355Z,9.13
2019-05-06T07:46:14.087Z,9.50
2019-05-06T07:48:43.227Z,8.98
2019-05-06T07:51:12.517Z,8.60
2019-05-06T07:53:42.736Z,9.98
2019-05-06T07:56:12.617Z,9.65
2019-05-06T07:58:43.424Z,9.18
2019-05-06T08:01:13.577Z,8.93
2019-05-06T08:03:43.238Z,8.25
2019-05-06T08:06:13.193Z,8.88
2019-05-06T08:08:43.262Z,8.95
2019-05-06T08:11:12.818Z,9.83
2019-05-06T08:13:43.443Z,9.28
2019-05-06T08:16:13.281Z,8.20
2019-05-06T08:18:42.710Z,8.58
2019-05-06T08:21:19.332Z,7.40
2019-05-06T08:23:52.132Z,9.40
2019-05-06T08:26:22.449Z,8.65
2019-05-06T08:28:52.680Z,8.20
2019-05-06T08:31:23.199Z,7.85
2019-05-06T08:33:52.706Z,7.78
2019-05-06T08:36:26.496Z,8.25
2019-05-06T08:38:59.569Z,6.85
2019-05-06T08:41:28.868Z,6.15
2019-05-06T08:43:57.955Z,5.90
2019-05-06T08:46:27.187Z,6.87
2019-05-06T08:48:56.322Z,6.78
2019-05-06T08:51:30.226Z,6.72
2019-05-06T08:54:04.067Z,6.33
2019-05-06T08:56:33.411Z,6.45
2019-05-06T08:59:03.145Z,5.17
2019-05-06T09:01:46.315Z,6.37
2019-05-06T09:04:16.413Z,6.08
2019-05-06T09:06:45.856Z,6.80
2019-05-06T09:09:15.130Z,6.30
2019-05-06T09:11:44.262Z,6.78
2019-05-06T09:14:14.062Z,6.80
2019-05-06T09:16:44.141Z,5.65
2019-05-06T09:19:13.724Z,5.80
2019-05-06T09:21:46.016Z,4.87
2019-05-06T09:24:13.757Z,5.60
2019-05-06T09:26:44.540Z,5.25
2019-05-06T09:29:15.252Z,6.87
2019-05-06T09:31:54.524Z,5.15
2019-05-06T09:34:43.092Z,5.72
2019-05-06T09:37:14.221Z,4.87
2019-05-06T09:39:46.919Z,4.85
2019-05-06T09:42:16.275Z,6.00
2019-05-06T09:44:46.048Z,4.90
2019-05-06T09:47:16.877Z,5.58
2019-05-06T09:49:47.620Z,5.00
2019-05-06T09:52:16.957Z,4.30
2019-05-06T09:54:54.084Z,4.90
2019-05-06T09:57:34.138Z,5.28
2019-05-06T10:00:04.742Z,5.83
2019-05-06T10:02:34.292Z,5.78
2019-05-06T10:05:03.759Z,6.20
2019-05-06T10:07:33.887Z,5.72
2019-05-06T10:10:03.274Z,5.58
2019-05-06T10:12:32.973Z,6.55
2019-05-06T10:15:03.204Z,7.60
2019-05-06T10:17:32.575Z,6.87
2019-05-06T10:20:02.908Z,7.25
2019-05-06T10:22:32.582Z,6.12
2019-05-06T10:25:03.778Z,8.40
2019-05-06T10:27:32.617Z,7.20
2019-05-06T10:30:03.522Z,7.45
2019-05-06T10:32:42.483Z,7.08
2019-05-06T10:35:13.097Z,7.12
2019-05-06T10:38:02.824Z,7.60
2019-05-06T10:41:00.100Z,7.50
2019-05-06T10:43:38.339Z,8.73
2019-05-06T10:46:07.662Z,7.92
2019-05-06T10:48:36.884Z,8.90
2019-05-06T10:51:24.117Z,9.80
2019-05-06T10:53:53.424Z,9.28
2019-05-06T10:56:32.108Z,9.90
2019-05-06T10:59:02.557Z,9.73
2019-05-06T11:01:33.230Z,9.75
2019-05-06T11:04:02.915Z,11.28
2019-05-06T11:06:33.719Z,11.28
2019-05-06T11:09:03.405Z,10.48
2019-05-06T11:11:38.108Z,10.43
2019-05-06T11:14:03.362Z,10.60
2019-05-06T11:16:33.340Z,10.53
2019-05-06T11:19:05.169Z,10.80
2019-05-06T11:21:33.492Z,11.03
2019-05-06T11:24:05.961Z,10.80
2019-05-06T11:26:33.477Z,9.78
2019-05-06T11:29:05.021Z,9.53
2019-05-06T11:31:36.305Z,8.83
2019-05-06T11:34:07.184Z,9.10
2019-05-06T11:36:44.096Z,10.45
2019-05-06T11:39:14.259Z,9.73
2019-05-06T11:41:59.204Z,8.73
2019-05-06T11:44:14.420Z,7.97
2019-05-06T11:46:43.679Z,8.75
2019-05-06T11:49:13.024Z,8.73
2019-05-06T11:51:43.466Z,8.53
2019-05-06T11:54:17.576Z,8.65
2019-05-06T11:56:50.644Z,7.90
2019-05-06T11:59:16.247Z,8.35
2019-05-06T12:01:49.862Z,7.97
2019-05-06T12:04:19.389Z,7.72
2019-05-06T12:06:48.555Z,7.50
2019-05-06T12:09:18.064Z,7.08
2019-05-06T12:11:47.270Z,7.05
2019-05-06T12:14:16.559Z,7.10
2019-05-06T12:16:45.943Z,7.17
2019-05-06T12:19:15.165Z,7.05
2019-05-06T12:21:44.467Z,7.40
2019-05-06T12:24:13.730Z,6.20
2019-05-06T12:26:43.146Z,6.42
2019-05-06T12:29:12.783Z,6.10
2019-05-06T12:31:42.467Z,6.12
2019-05-06T12:34:14.439Z,5.85
2019-05-06T12:36:42.889Z,5.33
2019-05-06T12:39:18.612Z,5.95
2019-05-06T12:42:01.039Z,6.28
2019-05-06T12:44:32.341Z,5.58
2019-05-06T12:47:19.558Z,5.37
2019-05-06T12:49:48.821Z,6.55
2019-05-06T12:52:18.234Z,5.80
2019-05-06T12:54:47.370Z,5.90
2019-05-06T12:57:16.665Z,6.47
2019-05-06T12:59:45.887Z,5.72
2019-05-06T13:02:15.160Z,6.85
2019-05-06T13:04:55.438Z,6.97
2019-05-06T13:07:16.860Z,5.97
2019-05-06T13:09:46.193Z,6.20
2019-05-06T13:12:17.070Z,5.83
2019-05-06T13:14:46.386Z,5.22
2019-05-06T13:17:17.146Z,5.95
2019-05-06T13:19:46.375Z,6.85
2019-05-06T13:22:17.223Z,6.30
2019-05-06T13:24:46.382Z,6.62
2019-05-06T13:27:17.132Z,6.30
2019-05-06T13:29:45.983Z,6.87
2019-05-06T13:32:16.691Z,6.80
2019-05-06T13:34:45.898Z,7.30
2019-05-06T13:37:15.323Z,7.03
2019-05-06T13:39:46.756Z,6.83
2019-05-06T13:42:17.077Z,6.20
2019-05-06T13:44:46.320Z,7.00
2019-05-06T13:47:17.035Z,7.00
2019-05-06T13:49:56.453Z,7.10
2019-05-06T13:52:25.829Z,7.25
2019-05-06T13:54:55.080Z,6.60
2019-05-06T13:57:24.296Z,7.60
2019-05-06T13:59:53.832Z,7.05
2019-05-06T14:02:30.580Z,7.60
2019-05-06T14:04:59.781Z,6.92
2019-05-06T14:07:29.106Z,7.60
2019-05-06T14:09:58.255Z,7.30
2019-05-06T14:12:27.667Z,7.53
2019-05-06T14:14:56.751Z,7.45
2019-05-06T14:17:25.981Z,8.35
2019-05-06T14:19:55.144Z,7.33
2019-05-06T14:22:24.425Z,6.75
2019-05-06T14:25:01.577Z,7.50
2019-05-06T14:27:32.792Z,6.87
2019-05-06T14:30:04.646Z,7.72
2019-05-06T14:32:33.861Z,7.47
2019-05-06T14:35:03.191Z,7.33
2019-05-06T14:37:32.969Z,8.15
2019-05-06T14:40:03.795Z,7.25
2019-05-06T14:42:33.075Z,7.22
2019-05-06T14:45:02.407Z,8.18
2019-05-06T14:47:33.131Z,8.40
2019-05-06T14:50:03.865Z,8.08
2019-05-06T14:52:33.544Z,7.90
2019-05-06T14:55:04.191Z,8.10
2019-05-06T14:57:33.429Z,8.45
2019-05-06T15:00:04.352Z,8.53
2019-05-06T15:02:33.918Z,7.95
2019-05-06T15:05:03.206Z,7.65
2019-05-06T15:07:32.926Z,7.85
2019-05-06T15:10:16.405Z,7.87
2019-05-06T15:12:33.483Z,8.30
2019-05-06T15:15:03.787Z,7.08
2019-05-06T15:17:36.530Z,7.87
2019-05-06T15:20:07.310Z,8.70
2019-05-06T15:22:36.379Z,7.92
2019-05-06T15:25:07.018Z,8.75
2019-05-06T15:27:36.176Z,8.48
2019-05-06T15:30:08.632Z,9.28
2019-05-06T15:32:39.145Z,9.65
2019-05-06T15:35:13.039Z,10.05
2019-05-06T15:37:53.533Z,9.20
2019-05-06T15:40:31.894Z,8.60
2019-05-06T15:42:53.555Z,9.73
2019-05-06T15:45:22.923Z,10.38
2019-05-06T15:47:52.491Z,9.73
2019-05-06T15:50:23.146Z,9.85
2019-05-06T15:52:53.974Z,9.15
2019-05-06T15:55:23.400Z,9.73
2019-05-06T15:57:52.836Z,9.98
2019-05-06T16:00:22.536Z,9.30
2019-05-06T16:02:53.069Z,8.83
2019-05-06T16:05:26.448Z,8.53
2019-05-06T16:07:53.742Z,7.95
2019-05-06T16:10:22.888Z,7.50
2019-05-06T16:12:53.423Z,7.62
2019-05-06T16:15:24.920Z,7.35
2019-05-06T16:17:53.795Z,7.08
2019-05-06T16:20:23.071Z,8.35
2019-05-06T16:22:53.822Z,8.28
2019-05-06T16:25:22.927Z,8.38
2019-05-06T16:27:54.672Z,7.55
2019-05-06T16:30:24.605Z,8.35
2019-05-06T16:32:53.836Z,7.60
2019-05-06T16:35:23.203Z,6.90
2019-05-06T16:37:52.489Z,6.50
2019-05-06T16:40:23.012Z,7.22
2019-05-06T16:42:54.422Z,7.50
2019-05-06T16:45:23.663Z,6.22
2019-05-06T16:47:52.925Z,6.35
2019-05-06T16:50:22.682Z,7.08
2019-05-06T16:52:52.751Z,6.42
2019-05-06T16:55:24.196Z,5.70
2019-05-06T16:57:55.258Z,6.42
2019-05-06T17:00:25.889Z,4.70
2019-05-06T17:03:15.263Z,5.92
2019-05-06T17:06:04.195Z,5.15
2019-05-06T17:08:36.406Z,4.97
2019-05-06T17:11:04.948Z,4.42
2019-05-06T17:13:37.444Z,4.08
2019-05-06T17:16:04.927Z,4.30
2019-05-06T17:18:34.167Z,4.47
2019-05-06T17:21:03.220Z,4.37
2019-05-06T17:23:32.592Z,4.20
2019-05-06T17:26:01.871Z,3.80
2019-05-06T17:28:48.739Z,3.83
2019-05-06T17:31:32.335Z,4.15
2019-05-06T17:34:06.228Z,3.52
2019-05-06T17:36:37.074Z,3.55
2019-05-06T17:39:13.638Z,3.60
2019-05-06T17:41:48.504Z,4.33
2019-05-06T17:44:13.898Z,2.98
2019-05-06T17:46:47.760Z,3.45
2019-05-06T17:49:23.546Z,4.30
2019-05-06T17:52:08.541Z,3.20
2019-05-06T17:54:37.791Z,3.77
2019-05-06T17:57:07.019Z,3.92
2019-05-06T17:59:37.632Z,3.52
2019-05-06T18:02:11.506Z,3.85
2019-05-06T18:04:43.066Z,4.10
2019-05-06T18:07:12.197Z,3.80
2019-05-06T18:09:42.589Z,3.90
2019-05-06T18:12:12.233Z,4.20
2019-05-06T18:14:43.564Z,3.80
2019-05-06T18:17:12.632Z,3.90
2019-05-06T18:19:41.829Z,5.03
2019-05-06T18:22:12.985Z,4.60
2019-05-06T18:24:41.736Z,4.58
2019-05-06T18:27:13.096Z,4.87
2019-05-06T18:29:42.774Z,4.87
2019-05-06T18:32:13.411Z,5.25
2019-05-06T18:34:43.652Z,5.35
2019-05-06T18:37:13.681Z,5.42
2019-05-06T18:39:45.958Z,5.28
2019-05-06T18:42:20.512Z,5.65
2019-05-06T18:44:50.237Z,5.90
2019-05-06T18:47:20.986Z,5.55
2019-05-06T18:49:52.368Z,7.10
2019-05-06T18:52:22.892Z,6.17
2019-05-06T18:54:53.736Z,6.45
2019-05-06T18:57:23.650Z,5.78
2019-05-06T18:59:53.810Z,6.25
2019-05-06T19:02:26.511Z,6.80
2019-05-06T19:04:57.447Z,6.47
2019-05-06T19:07:26.772Z,7.22
2019-05-06T19:09:57.606Z,6.60
2019-05-06T19:12:31.663Z,6.85
2019-05-06T19:14:57.834Z,6.90
2019-05-06T19:17:27.914Z,6.62
2019-05-06T19:19:58.309Z,7.30
2019-05-06T19:22:27.837Z,6.60
2019-05-06T19:24:58.552Z,6.80
2019-05-06T19:27:29.446Z,6.83
2019-05-06T19:29:58.822Z,7.87
2019-05-06T19:32:28.347Z,7.67
2019-05-06T19:34:58.447Z,7.60
2019-05-06T19:37:28.651Z,7.87
2019-05-06T19:39:58.425Z,7.85
2019-05-06T19:42:28.410Z,7.37
2019-05-06T19:44:58.041Z,8.00
2019-05-06T19:47:27.666Z,7.58
2019-05-06T19:49:57.510Z,8.03
2019-05-06T19:52:28.663Z,9.08
2019-05-06T19:55:02.930Z,7.60
2019-05-06T19:57:32.406Z,8.33
2019-05-06T20:00:03.921Z,8.25
2019-05-06T20:02:35.810Z,8.15
2019-05-06T20:05:22.662Z,9.30
2019-05-06T20:07:54.452Z,7.97
2019-05-06T20:10:26.413Z,8.53
2019-05-06T20:13:01.590Z,8.68
2019-05-06T20:15:38.665Z,8.08
2019-05-06T20:18:09.389Z,8.45
2019-05-06T20:20:42.099Z,8.20
2019-05-06T20:23:12.523Z,8.15
2019-05-06T20:25:44.720Z,8.58
2019-05-06T20:28:13.392Z,9.00
2019-05-06T20:30:45.260Z,7.87
2019-05-06T20:33:16.521Z,8.43
2019-05-06T20:35:46.213Z,8.35
2019-05-06T20:38:16.328Z,8.40
2019-05-06T20:40:45.753Z,8.55
2019-05-06T20:43:20.422Z,8.60
2019-05-06T20:45:46.188Z,8.68
2019-05-06T20:48:15.538Z,7.45
2019-05-06T20:50:44.756Z,9.00
2019-05-06T20:53:13.852Z,8.55
2019-05-06T20:55:43.522Z,8.13
2019-05-06T20:58:12.902Z,8.60
2019-05-06T21:00:42.955Z,8.35
2019-05-06T21:03:12.466Z,7.05
2019-05-06T21:05:43.524Z,7.65
2019-05-06T21:08:13.141Z,7.25
2019-05-06T21:10:42.652Z,7.80
2019-05-06T21:13:13.370Z,8.18
2019-05-06T21:15:43.337Z,8.93
2019-05-06T21:18:12.640Z,8.38
2019-05-06T21:20:43.508Z,8.55
2019-05-06T21:23:12.785Z,7.97
2019-05-06T21:25:43.119Z,7.50
2019-05-06T21:28:12.586Z,7.62
2019-05-06T21:30:42.860Z,8.55
2019-05-06T21:33:12.491Z,7.42
2019-05-06T21:35:42.401Z,7.87
2019-05-06T21:38:12.262Z,7.53
2019-05-06T21:40:43.354Z,7.35
2019-05-06T21:43:13.018Z,6.62
2019-05-06T21:45:42.590Z,6.67
2019-05-06T21:48:13.674Z,6.22
2019-05-06T21:50:42.867Z,6.87
2019-05-06T21:53:14.354Z,6.70
2019-05-06T21:55:42.849Z,6.75
2019-05-06T21:58:12.519Z,7.40
2019-05-06T22:00:43.674Z,6.33
2019-05-06T22:03:13.505Z,6.05
2019-05-06T22:05:42.994Z,5.83
2019-05-06T22:08:12.836Z,5.87
2019-05-06T22:10:42.390Z,5.87
2019-05-06T22:13:14.114Z,6.42
2019-05-06T22:15:42.390Z,6.50
2019-05-06T22:18:12.490Z,5.85
2019-05-06T22:20:59.999Z,5.80
2019-05-06T22:23:32.788Z,5.37
2019-05-06T22:26:10.847Z,5.70
2019-05-06T22:28:32.543Z,5.72
2019-05-06T22:31:02.958Z,5.80
2019-05-06T22:33:32.380Z,5.40
2019-05-06T22:36:02.212Z,5.55
2019-05-06T22:38:31.495Z,4.97
2019-05-06T22:41:02.445Z,5.40
2019-05-06T22:43:32.658Z,5.17
2019-05-06T22:46:02.627Z,5.95
2019-05-06T22:48:32.389Z,5.58
2019-05-06T22:51:02.653Z,5.75
2019-05-06T22:53:32.824Z,6.55
2019-05-06T22:56:04.089Z,6.65
2019-05-06T22:58:34.659Z,6.95
2019-05-06T23:01:05.511Z,7.60
2019-05-06T23:03:34.755Z,7.60
2019-05-06T23:06:03.960Z,8.70
2019-05-06T23:08:33.325Z,7.60
2019-05-06T23:11:02.413Z,7.90
2019-05-06T23:13:31.694Z,7.45
2019-05-06T23:16:02.034Z,7.92
2019-05-06T23:18:32.055Z,7.87
2019-05-06T23:21:02.465Z,8.15
2019-05-06T23:23:32.885Z,8.28
2019-05-06T23:26:19.096Z,7.90
2019-05-06T23:28:48.380Z,7.97
2019-05-06T23:31:17.668Z,8.58
2019-05-06T23:33:46.991Z,8.45
2019-05-06T23:36:16.234Z,7.87
2019-05-06T23:39:22.963Z,8.38
2019-05-06T23:42:28.814Z,7.70
2019-05-06T23:45:34.451Z,8.68
2019-05-06T23:48:40.212Z,9.95
2019-05-06T23:51:46.007Z,8.70
2019-05-06T23:54:52.226Z,8.70
2019-05-06T23:57:20.386Z,8.35
2019-05-06T23:59:49.526Z,9.38
